createdAt,value
2017-10-02T00:00:14.231Z,11.00
2017-10-02T00:02:41.137Z,11.00
2017-10-02T00:05:07.382Z,11.00
2017-10-02T00:07:34.482Z,11.00
2017-10-02T00:10:01.212Z,11.00
2017-10-02T00:12:27.737Z,11.00
2017-10-02T00:14:54.757Z,11.00
2017-10-02T00:17:21.587Z,11.10
2017-10-02T00:19:49.034Z,11.00
2017-10-02T00:22:15.358Z,11.00
2017-10-02T00:24:41.749Z,11.00
2017-10-02T00:27:07.963Z,11.00
2017-10-02T00:29:34.682Z,11.00
2017-10-02T00:32:01.781Z,11.00
2017-10-02T00:34:28.053Z,11.00
2017-10-02T00:36:54.665Z,10.90
2017-10-02T00:39:21.058Z,10.90
2017-10-02T00:41:48.479Z,10.90
2017-10-02T00:44:15.548Z,10.90
2017-10-02T00:46:41.783Z,10.90
2017-10-02T00:49:08.252Z,10.90
2017-10-02T00:51:35.428Z,10.90
2017-10-02T00:54:02.482Z,11.00
2017-10-02T00:56:28.758Z,10.90
2017-10-02T00:58:55.230Z,10.90
2017-10-02T01:01:23.088Z,10.90
2017-10-02T01:03:50.643Z,11.00
2017-10-02T01:06:18.019Z,11.00
2017-10-02T01:08:44.400Z,11.10
2017-10-02T01:11:10.883Z,11.10
2017-10-02T01:13:39.614Z,11.10
2017-10-02T01:16:06.171Z,11.10
2017-10-02T01:18:32.544Z,11.20
2017-10-02T01:20:59.320Z,11.20
2017-10-02T01:23:25.878Z,11.20
2017-10-02T01:25:53.104Z,11.20
2017-10-02T01:28:19.676Z,11.20
2017-10-02T01:30:46.373Z,11.20
2017-10-02T01:33:13.015Z,11.30
2017-10-02T01:35:39.460Z,11.20
2017-10-02T01:38:06.157Z,11.20
2017-10-02T01:40:32.891Z,11.30
2017-10-02T01:42:59.401Z,11.30
2017-10-02T01:45:25.778Z,11.30
2017-10-02T01:47:52.184Z,11.30
2017-10-02T01:50:19.514Z,11.30
2017-10-02T01:52:46.211Z,11.30
2017-10-02T01:55:12.452Z,11.40
2017-10-02T01:57:39.056Z,11.40
2017-10-02T02:00:07.474Z,11.40
2017-10-02T02:02:34.391Z,11.40
2017-10-02T02:05:00.826Z,11.50
2017-10-02T02:07:27.624Z,11.50
2017-10-02T02:09:54.517Z,11.50
2017-10-02T02:12:20.966Z,11.50
2017-10-02T02:14:47.350Z,11.50
2017-10-02T02:17:15.059Z,11.50
2017-10-02T02:19:41.604Z,11.60
2017-10-02T02:22:08.100Z,11.60
2017-10-02T02:24:35.246Z,11.70
2017-10-02T02:27:02.738Z,11.70
2017-10-02T02:29:31.014Z,11.70
2017-10-02T02:31:57.846Z,11.70
2017-10-02T02:34:24.088Z,11.70
2017-10-02T02:36:50.368Z,11.80
2017-10-02T02:39:16.813Z,11.80
2017-10-02T02:41:44.503Z,11.90
2017-10-02T02:44:10.847Z,11.90
2017-10-02T02:46:37.074Z,11.90
2017-10-02T02:49:03.311Z,12.00
2017-10-02T02:51:29.523Z,12.00
2017-10-02T02:53:55.724Z,12.00
2017-10-02T02:56:22.719Z,12.10
2017-10-02T02:58:48.931Z,12.10
2017-10-02T03:01:15.134Z,12.20
2017-10-02T03:03:42.097Z,12.20
2017-10-02T03:06:08.646Z,12.20
2017-10-02T03:08:34.882Z,12.30
2017-10-02T03:11:01.132Z,12.30
2017-10-02T03:13:27.350Z,12.30
2017-10-02T03:15:53.592Z,12.30
2017-10-02T03:18:20.004Z,12.30
2017-10-02T03:20:46.238Z,12.40
2017-10-02T03:23:12.447Z,12.30
2017-10-02T03:25:38.666Z,12.40
2017-10-02T03:28:04.887Z,12.40
2017-10-02T03:30:31.121Z,12.40
2017-10-02T03:32:57.327Z,12.40
2017-10-02T03:35:23.531Z,12.40
2017-10-02T03:37:50.507Z,12.40
2017-10-02T03:40:16.706Z,12.40
2017-10-02T03:42:43.653Z,12.40
2017-10-02T03:45:10.636Z,12.40
2017-10-02T03:47:36.853Z,12.40
2017-10-02T03:50:03.097Z,12.40
2017-10-02T03:52:29.332Z,12.40
2017-10-02T03:54:55.531Z,12.40
2017-10-02T03:57:21.753Z,12.30
2017-10-02T03:59:48.766Z,12.20
2017-10-02T04:02:15.866Z,12.20
2017-10-02T04:04:43.023Z,12.10
2017-10-02T04:07:10.313Z,12.10
2017-10-02T04:09:36.583Z,11.90
2017-10-02T04:12:03.697Z,11.90
2017-10-02T04:14:31.204Z,11.80
2017-10-02T04:16:58.366Z,11.80
2017-10-02T04:19:24.633Z,11.60
2017-10-02T04:21:50.856Z,11.60
2017-10-02T04:24:17.943Z,11.60
2017-10-02T04:26:44.213Z,11.60
2017-10-02T04:29:10.641Z,11.50
2017-10-02T04:31:36.879Z,11.50
2017-10-02T04:34:03.091Z,11.40
2017-10-02T04:36:29.344Z,11.40
2017-10-02T04:38:55.556Z,11.40
2017-10-02T04:41:21.777Z,11.40
2017-10-02T04:43:48.007Z,11.40
2017-10-02T04:46:14.211Z,11.40
2017-10-02T04:48:40.411Z,11.40
2017-10-02T04:51:07.395Z,11.30
2017-10-02T04:53:33.608Z,11.30
2017-10-02T04:55:59.808Z,11.30
2017-10-02T04:58:26.828Z,11.30
2017-10-02T05:00:53.048Z,11.20
2017-10-02T05:03:19.271Z,11.30
2017-10-02T05:05:45.511Z,11.20
2017-10-02T05:08:11.751Z,11.20
2017-10-02T05:10:37.971Z,11.20
2017-10-02T05:13:04.224Z,11.20
2017-10-02T05:15:31.171Z,11.20
2017-10-02T05:17:58.132Z,11.30
2017-10-02T05:20:24.397Z,11.30
2017-10-02T05:22:50.602Z,11.30
2017-10-02T05:25:16.821Z,11.20
2017-10-02T05:27:43.029Z,11.20
2017-10-02T05:30:09.979Z,11.20
2017-10-02T05:32:36.939Z,11.20
2017-10-02T05:35:03.197Z,11.10
2017-10-02T05:37:29.411Z,11.20
2017-10-02T05:39:55.644Z,11.20
2017-10-02T05:42:22.084Z,11.10
2017-10-02T05:44:48.311Z,11.10
2017-10-02T05:47:14.527Z,11.10
2017-10-02T05:49:40.923Z,11.10
2017-10-02T05:52:07.875Z,11.10
2017-10-02T05:54:34.828Z,11.10
2017-10-02T05:57:01.136Z,11.10
2017-10-02T05:59:28.084Z,11.20
2017-10-02T06:01:55.044Z,11.30
2017-10-02T06:04:21.265Z,11.20
2017-10-02T06:06:48.196Z,11.20
2017-10-02T06:09:14.469Z,11.20
2017-10-02T06:11:40.692Z,11.20
2017-10-02T06:14:06.902Z,11.10
2017-10-02T06:16:33.373Z,11.10
2017-10-02T06:18:59.586Z,11.10
2017-10-02T06:21:25.809Z,11.10
2017-10-02T06:23:52.267Z,11.20
2017-10-02T06:26:18.488Z,11.20
2017-10-02T06:28:44.711Z,11.20
2017-10-02T06:31:11.147Z,11.20
2017-10-02T06:33:37.353Z,11.30
2017-10-02T06:36:03.596Z,11.30
2017-10-02T06:38:30.146Z,11.40
2017-10-02T06:40:56.364Z,11.50
2017-10-02T06:43:22.578Z,11.50
2017-10-02T06:45:49.035Z,11.50
2017-10-02T06:48:16.004Z,11.50
2017-10-02T06:50:42.247Z,11.50
2017-10-02T06:53:09.462Z,11.50
2017-10-02T06:55:35.683Z,11.50
2017-10-02T06:58:01.895Z,11.50
2017-10-02T07:00:28.152Z,11.60
2017-10-02T07:02:54.388Z,11.60
2017-10-02T07:05:20.599Z,11.60
2017-10-02T07:07:46.827Z,11.80
2017-10-02T07:10:13.363Z,11.70
2017-10-02T07:12:39.576Z,11.90
2017-10-02T07:15:05.805Z,11.80
2017-10-02T07:17:32.010Z,11.80
2017-10-02T07:19:58.219Z,11.80
2017-10-02T07:22:25.203Z,11.80
2017-10-02T07:24:51.445Z,11.80
2017-10-02T07:27:17.649Z,11.80
2017-10-02T07:29:44.069Z,11.90
2017-10-02T07:32:10.292Z,11.90
2017-10-02T07:34:37.179Z,11.90
2017-10-02T07:37:03.395Z,11.90
2017-10-02T07:39:29.728Z,11.90
2017-10-02T07:41:55.991Z,11.90
2017-10-02T07:44:22.210Z,12.00
2017-10-02T07:46:48.465Z,12.00
2017-10-02T07:49:15.545Z,12.00
2017-10-02T07:51:42.770Z,12.00
2017-10-02T07:54:09.108Z,12.00
2017-10-02T07:56:35.576Z,12.10
2017-10-02T07:59:01.897Z,12.10
2017-10-02T08:01:28.421Z,12.10
2017-10-02T08:03:55.214Z,12.20
2017-10-02T08:06:21.552Z,12.20
2017-10-02T08:08:48.959Z,12.20
2017-10-02T08:11:18.011Z,12.20
2017-10-02T08:13:45.729Z,12.20
2017-10-02T08:16:13.175Z,12.20
2017-10-02T08:18:41.390Z,12.30
2017-10-02T08:21:10.742Z,12.20
2017-10-02T08:23:38.271Z,12.30
2017-10-02T08:26:05.945Z,12.30
2017-10-02T08:28:33.438Z,12.30
2017-10-02T08:31:02.678Z,12.40
2017-10-02T08:33:30.225Z,12.40
2017-10-02T08:35:57.663Z,12.40
2017-10-02T08:38:25.407Z,12.40
2017-10-02T08:40:52.918Z,12.40
2017-10-02T08:43:20.377Z,12.50
2017-10-02T08:45:48.443Z,12.50
2017-10-02T08:48:16.046Z,12.50
2017-10-02T08:50:49.303Z,12.60
2017-10-02T08:53:16.740Z,12.60
2017-10-02T08:55:44.408Z,12.60
2017-10-02T08:58:12.988Z,12.70
2017-10-02T09:00:39.457Z,12.70
2017-10-02T09:03:06.071Z,12.70
2017-10-02T09:05:32.428Z,12.80
2017-10-02T09:07:58.866Z,12.90
2017-10-02T09:10:25.328Z,12.90
2017-10-02T09:12:53.200Z,12.90
2017-10-02T09:15:19.524Z,12.90
2017-10-02T09:17:45.968Z,12.90
2017-10-02T09:20:14.023Z,13.00
2017-10-02T09:22:40.985Z,13.00
2017-10-02T09:25:07.970Z,13.00
2017-10-02T09:27:35.450Z,13.10
2017-10-02T09:30:01.724Z,13.10
2017-10-02T09:32:28.149Z,13.20
2017-10-02T09:34:54.871Z,13.20
2017-10-02T09:37:22.165Z,13.30
2017-10-02T09:39:49.229Z,13.30
2017-10-02T09:42:16.531Z,13.40
2017-10-02T09:44:43.743Z,13.40
2017-10-02T09:47:11.336Z,13.50
2017-10-02T09:49:38.271Z,13.50
2017-10-02T09:52:05.080Z,13.50
2017-10-02T09:54:32.536Z,13.60
2017-10-02T09:56:59.930Z,13.60
2017-10-02T09:59:26.228Z,13.60
2017-10-02T10:01:52.524Z,13.60
2017-10-02T10:04:18.742Z,13.60
2017-10-02T10:06:45.270Z,13.70
2017-10-02T10:09:11.759Z,13.70
2017-10-02T10:11:37.972Z,13.70
2017-10-02T10:14:05.227Z,13.80
2017-10-02T10:16:31.812Z,13.80
2017-10-02T10:18:58.338Z,13.80
2017-10-02T10:21:25.201Z,13.90
2017-10-02T10:23:52.250Z,14.00
2017-10-02T10:26:18.603Z,14.00
2017-10-02T10:28:46.240Z,14.00
2017-10-02T10:31:13.197Z,14.00
2017-10-02T10:33:39.551Z,14.10
2017-10-02T10:36:06.699Z,14.10
2017-10-02T10:38:34.341Z,14.10
2017-10-02T10:41:02.071Z,14.10
2017-10-02T10:43:28.685Z,14.10
2017-10-02T10:45:55.640Z,14.10
2017-10-02T10:48:22.407Z,14.00
2017-10-02T10:50:50.024Z,14.10
2017-10-02T10:53:16.730Z,14.10
2017-10-02T10:55:43.965Z,14.20
2017-10-02T10:58:11.857Z,14.20
2017-10-02T11:00:38.824Z,14.20
2017-10-02T11:03:05.578Z,14.20
2017-10-02T11:05:32.062Z,14.20
2017-10-02T11:07:58.669Z,14.10
2017-10-02T11:10:24.924Z,14.10
2017-10-02T11:12:51.233Z,14.10
2017-10-02T11:15:18.126Z,14.20
2017-10-02T11:17:44.854Z,14.20
2017-10-02T11:20:11.876Z,14.10
2017-10-02T11:22:38.201Z,14.10
2017-10-02T11:25:04.472Z,14.10
2017-10-02T11:27:31.476Z,14.10
2017-10-02T11:29:57.694Z,14.10
2017-10-02T11:32:25.389Z,14.20
2017-10-02T11:34:52.581Z,14.30
2017-10-02T11:37:19.046Z,14.30
2017-10-02T11:39:45.708Z,14.30
2017-10-02T11:42:12.837Z,14.30
2017-10-02T11:44:40.011Z,14.30
2017-10-02T11:47:07.143Z,14.30
2017-10-02T11:49:34.919Z,14.50
2017-10-02T11:52:01.602Z,14.50
2017-10-02T11:54:28.256Z,14.60
2017-10-02T11:56:54.767Z,14.70
2017-10-02T11:59:21.526Z,14.80
2017-10-02T12:01:48.253Z,14.80
2017-10-02T12:04:14.651Z,14.90
2017-10-02T12:06:41.226Z,15.00
2017-10-02T12:09:08.262Z,15.00
2017-10-02T12:11:35.346Z,15.20
2017-10-02T12:14:02.711Z,15.30
2017-10-02T12:16:29.983Z,15.50
2017-10-02T12:18:56.373Z,15.50
2017-10-02T12:21:24.136Z,15.60
2017-10-02T12:23:50.642Z,15.70
2017-10-02T12:26:18.681Z,15.80
2017-10-02T12:28:45.579Z,15.80
2017-10-02T12:31:12.852Z,15.70
2017-10-02T12:33:40.003Z,15.70
2017-10-02T12:36:07.316Z,16.20
2017-10-02T12:38:33.992Z,16.20
2017-10-02T12:41:00.911Z,16.20
2017-10-02T12:43:27.780Z,16.20
2017-10-02T12:45:54.070Z,16.30
2017-10-02T12:48:20.734Z,16.40
2017-10-02T12:50:47.681Z,16.30
2017-10-02T12:53:14.032Z,16.50
2017-10-02T12:55:40.612Z,16.60
2017-10-02T12:58:07.215Z,17.00
2017-10-02T13:00:33.564Z,17.40
2017-10-02T13:03:00.576Z,17.20
2017-10-02T13:05:26.791Z,17.20
2017-10-02T13:07:53.798Z,17.30
2017-10-02T13:10:21.606Z,17.40
2017-10-02T13:12:48.082Z,17.30
2017-10-02T13:15:15.210Z,17.40
2017-10-02T13:17:42.680Z,17.40
2017-10-02T13:20:09.186Z,17.50
2017-10-02T13:22:36.392Z,17.40
2017-10-02T13:25:04.380Z,16.80
2017-10-02T13:27:31.748Z,16.70
2017-10-02T13:29:58.051Z,16.60
2017-10-02T13:32:25.083Z,16.60
2017-10-02T13:34:52.724Z,16.60
2017-10-02T13:37:19.864Z,16.70
2017-10-02T13:39:48.058Z,16.70
2017-10-02T13:42:15.069Z,16.80
2017-10-02T13:44:41.574Z,16.80
2017-10-02T13:47:08.359Z,16.60
2017-10-02T13:49:35.515Z,16.60
2017-10-02T13:52:02.328Z,16.60
2017-10-02T13:54:29.196Z,16.50
2017-10-02T13:56:55.567Z,16.40
2017-10-02T13:59:22.961Z,16.40
2017-10-02T14:01:49.352Z,16.30
2017-10-02T14:04:16.870Z,16.50
2017-10-02T14:06:43.108Z,16.50
2017-10-02T14:09:10.219Z,16.60
2017-10-02T14:11:37.714Z,16.50
2017-10-02T14:14:04.392Z,16.40
2017-10-02T14:16:31.297Z,16.30
2017-10-02T14:18:58.772Z,16.30
2017-10-02T14:21:25.477Z,16.40
2017-10-02T14:23:51.917Z,16.30
2017-10-02T14:26:19.243Z,16.30
2017-10-02T14:28:45.475Z,16.30
2017-10-02T14:31:11.987Z,16.30
2017-10-02T14:33:39.489Z,16.30
2017-10-02T14:36:06.135Z,16.30
2017-10-02T14:38:32.637Z,16.20
2017-10-02T14:40:59.856Z,16.20
2017-10-02T14:43:26.230Z,16.20
2017-10-02T14:45:52.842Z,16.20
2017-10-02T14:48:19.338Z,16.10
2017-10-02T14:50:47.006Z,16.10
2017-10-02T14:53:14.128Z,16.10
2017-10-02T14:55:41.372Z,16.10
2017-10-02T14:58:08.361Z,16.10
2017-10-02T15:00:35.607Z,16.00
2017-10-02T15:03:03.507Z,16.00
2017-10-02T15:05:29.869Z,16.00
2017-10-02T15:07:57.264Z,15.90
2017-10-02T15:10:23.681Z,16.00
2017-10-02T15:12:51.989Z,15.90
2017-10-02T15:15:18.629Z,15.90
2017-10-02T15:17:44.881Z,15.90
2017-10-02T15:20:11.291Z,15.90
2017-10-02T15:22:38.597Z,15.90
2017-10-02T15:25:05.771Z,15.90
2017-10-02T15:27:32.352Z,15.80
2017-10-02T15:29:58.683Z,15.90
2017-10-02T15:32:24.937Z,15.80
2017-10-02T15:34:51.990Z,15.80
2017-10-02T15:37:18.252Z,15.80
2017-10-02T15:39:44.820Z,15.80
2017-10-02T15:42:11.032Z,15.80
2017-10-02T15:44:37.416Z,15.70
2017-10-02T15:47:03.650Z,15.70
2017-10-02T15:49:31.161Z,15.70
2017-10-02T15:51:57.872Z,15.70
2017-10-02T15:54:24.168Z,15.70
2017-10-02T15:56:51.163Z,15.70
2017-10-02T15:59:17.656Z,15.70
2017-10-02T16:01:43.983Z,15.70
2017-10-02T16:04:10.252Z,15.60
2017-10-02T16:06:36.482Z,15.60
2017-10-02T16:09:02.831Z,15.60
2017-10-02T16:11:29.431Z,15.50
2017-10-02T16:13:56.613Z,15.50
2017-10-02T16:16:22.849Z,15.50
2017-10-02T16:18:49.083Z,15.50
2017-10-02T16:21:15.613Z,15.40
2017-10-02T16:23:41.848Z,15.40
2017-10-02T16:26:08.070Z,15.40
2017-10-02T16:28:35.842Z,15.40
2017-10-02T16:31:02.783Z,15.40
2017-10-02T16:33:29.020Z,15.30
2017-10-02T16:35:56.442Z,15.30
2017-10-02T16:38:23.091Z,15.30
2017-10-02T16:40:49.844Z,15.30
2017-10-02T16:43:16.128Z,15.30
2017-10-02T16:45:42.689Z,15.20
2017-10-02T16:48:09.664Z,15.20
2017-10-02T16:50:37.168Z,15.10
2017-10-02T16:53:05.123Z,15.10
2017-10-02T16:55:32.468Z,15.10
2017-10-02T16:58:02.121Z,15.10
2017-10-02T17:00:28.497Z,15.10
2017-10-02T17:02:55.407Z,15.20
2017-10-02T17:05:21.711Z,15.10
2017-10-02T17:07:48.086Z,15.10
2017-10-02T17:10:14.412Z,15.10
2017-10-02T17:12:41.364Z,15.00
2017-10-02T17:15:08.424Z,14.90
2017-10-02T17:17:36.512Z,14.90
2017-10-02T17:20:03.400Z,14.90
2017-10-02T17:22:29.756Z,14.90
2017-10-02T17:24:56.824Z,14.80
2017-10-02T17:27:23.951Z,14.80
2017-10-02T17:29:52.062Z,14.80
2017-10-02T17:32:18.324Z,14.70
2017-10-02T17:34:44.896Z,14.70
2017-10-02T17:37:11.659Z,14.70
2017-10-02T17:39:39.237Z,14.70
2017-10-02T17:42:05.883Z,14.70
2017-10-02T17:44:32.424Z,14.60
2017-10-02T17:46:59.218Z,14.60
2017-10-02T17:49:25.687Z,14.60
2017-10-02T17:51:51.948Z,14.60
2017-10-02T17:54:18.294Z,14.60
2017-10-02T17:56:45.004Z,14.60
2017-10-02T17:59:11.306Z,14.50
2017-10-02T18:01:38.736Z,14.60
2017-10-02T18:04:05.352Z,14.60
2017-10-02T18:06:31.606Z,14.50
2017-10-02T18:08:58.116Z,14.50
2017-10-02T18:11:25.751Z,14.50
2017-10-02T18:13:52.616Z,14.50
2017-10-02T18:16:19.668Z,14.50
2017-10-02T18:18:46.347Z,14.50
2017-10-02T18:21:13.442Z,14.40
2017-10-02T18:23:40.010Z,14.40
2017-10-02T18:26:06.237Z,14.40
2017-10-02T18:28:32.497Z,14.40
2017-10-02T18:30:59.513Z,14.30
2017-10-02T18:33:26.874Z,14.30
2017-10-02T18:35:54.021Z,14.30
2017-10-02T18:38:20.713Z,14.30
2017-10-02T18:40:48.981Z,14.30
2017-10-02T18:43:15.774Z,14.30
2017-10-02T18:45:43.025Z,14.30
2017-10-02T18:48:09.745Z,14.20
2017-10-02T18:50:36.179Z,14.20
2017-10-02T18:53:03.302Z,14.20
2017-10-02T18:55:30.399Z,14.10
2017-10-02T18:57:59.096Z,14.20
2017-10-02T19:00:28.549Z,14.20
2017-10-02T19:02:55.215Z,14.20
2017-10-02T19:05:21.495Z,14.10
2017-10-02T19:07:47.770Z,14.10
2017-10-02T19:10:14.472Z,14.10
2017-10-02T19:12:41.308Z,14.00
2017-10-02T19:15:08.342Z,14.00
2017-10-02T19:17:35.455Z,14.00
2017-10-02T19:20:02.035Z,14.00
2017-10-02T19:22:29.115Z,14.10
2017-10-02T19:24:56.073Z,14.10
2017-10-02T19:27:22.364Z,14.00
2017-10-02T19:29:49.834Z,14.00
2017-10-02T19:32:16.065Z,14.00
2017-10-02T19:34:43.378Z,13.90
2017-10-02T19:37:09.912Z,13.90
2017-10-02T19:39:37.693Z,13.80
2017-10-02T19:42:04.859Z,13.80
2017-10-02T19:44:31.345Z,13.80
2017-10-02T19:46:57.977Z,13.80
2017-10-02T19:49:25.288Z,13.80
2017-10-02T19:51:51.919Z,13.80
2017-10-02T19:54:18.504Z,13.80
2017-10-02T19:56:44.728Z,13.70
2017-10-02T19:59:11.104Z,13.70
2017-10-02T20:01:38.072Z,13.60
2017-10-02T20:04:05.690Z,13.60
2017-10-02T20:06:32.661Z,13.60
2017-10-02T20:08:59.306Z,13.60
2017-10-02T20:11:26.712Z,13.60
2017-10-02T20:13:52.990Z,13.60
2017-10-02T20:16:20.002Z,13.50
2017-10-02T20:18:46.788Z,13.50
2017-10-02T20:21:14.904Z,13.50
2017-10-02T20:23:41.216Z,13.50
2017-10-02T20:26:07.632Z,13.50
2017-10-02T20:28:33.861Z,13.50
2017-10-02T20:31:00.087Z,13.40
2017-10-02T20:33:26.291Z,13.40
2017-10-02T20:35:52.506Z,13.40
2017-10-02T20:38:18.710Z,13.40
2017-10-02T20:40:45.659Z,13.40
2017-10-02T20:43:12.633Z,13.40
2017-10-02T20:45:38.822Z,13.40
2017-10-02T20:48:05.037Z,13.40
2017-10-02T20:50:31.271Z,13.40
2017-10-02T20:52:57.515Z,13.30
2017-10-02T20:55:24.464Z,13.30
2017-10-02T20:57:51.464Z,13.30
2017-10-02T21:00:17.726Z,13.20
2017-10-02T21:02:43.965Z,13.20
2017-10-02T21:05:10.967Z,13.10
2017-10-02T21:07:37.175Z,13.10
2017-10-02T21:10:03.387Z,13.00
2017-10-02T21:12:29.599Z,13.00
2017-10-02T21:14:56.572Z,13.00
2017-10-02T21:17:23.023Z,12.90
2017-10-02T21:19:49.223Z,13.00
2017-10-02T21:22:15.427Z,13.00
2017-10-02T21:24:42.388Z,12.90
2017-10-02T21:27:08.610Z,12.90
2017-10-02T21:29:34.825Z,12.90
2017-10-02T21:32:01.808Z,12.90
2017-10-02T21:34:28.016Z,12.90
2017-10-02T21:36:54.250Z,12.90
2017-10-02T21:39:20.492Z,12.80
2017-10-02T21:41:46.705Z,12.80
2017-10-02T21:44:12.910Z,12.80
2017-10-02T21:46:39.920Z,12.80
2017-10-02T21:49:06.119Z,12.80
2017-10-02T21:51:32.331Z,12.80
2017-10-02T21:53:58.558Z,12.80
2017-10-02T21:56:25.046Z,12.80
2017-10-02T21:58:51.274Z,12.80
2017-10-02T22:01:17.528Z,12.80
2017-10-02T22:03:44.483Z,12.70
2017-10-02T22:06:11.425Z,12.80
2017-10-02T22:08:38.422Z,12.70
2017-10-02T22:11:04.627Z,12.70
2017-10-02T22:13:30.828Z,12.80
2017-10-02T22:15:57.824Z,12.70
2017-10-02T22:18:24.063Z,12.80
2017-10-02T22:20:50.279Z,12.80
2017-10-02T22:23:16.509Z,12.80
2017-10-02T22:25:42.727Z,12.80
2017-10-02T22:28:08.962Z,12.80
2017-10-02T22:30:35.180Z,12.80
2017-10-02T22:33:01.407Z,12.80
2017-10-02T22:35:27.634Z,12.70
2017-10-02T22:37:53.839Z,12.70
2017-10-02T22:40:20.043Z,12.80
2017-10-02T22:42:47.252Z,12.70
2017-10-02T22:45:13.466Z,12.70
2017-10-02T22:47:39.682Z,12.80
2017-10-02T22:50:05.959Z,12.70
2017-10-02T22:52:32.188Z,12.70
2017-10-02T22:54:58.387Z,12.70
2017-10-02T22:57:24.636Z,12.70
2017-10-02T22:59:50.848Z,12.80
2017-10-02T23:02:17.064Z,12.80
2017-10-02T23:04:43.602Z,12.70
2017-10-02T23:07:09.809Z,12.80
2017-10-02T23:09:36.011Z,12.80
2017-10-02T23:12:02.960Z,12.80
2017-10-02T23:14:29.910Z,12.80
2017-10-02T23:16:56.928Z,12.80
2017-10-02T23:19:23.150Z,12.80
2017-10-02T23:21:49.360Z,12.70
2017-10-02T23:24:15.794Z,12.70
2017-10-02T23:26:42.009Z,12.70
2017-10-02T23:29:08.218Z,12.70
2017-10-02T23:31:34.488Z,12.80
2017-10-02T23:34:00.695Z,12.70
2017-10-02T23:36:26.928Z,12.70
2017-10-02T23:38:53.210Z,12.70
2017-10-02T23:41:20.152Z,12.70
2017-10-02T23:43:47.095Z,12.70
2017-10-02T23:46:14.162Z,12.60
2017-10-02T23:48:40.376Z,12.70
2017-10-02T23:51:06.591Z,12.70
2017-10-02T23:53:33.573Z,12.60
2017-10-02T23:55:59.800Z,12.60
2017-10-02T23:58:26.016Z,12.60
